createdAt,value
2022-07-28T00:00:45.641Z,65.49
2022-07-28T00:05:49.892Z,65.94
2022-07-28T00:10:53.823Z,66.50
2022-07-28T00:15:57.398Z,67.76
2022-07-28T00:21:02.170Z,68.04
2022-07-28T00:26:06.009Z,68.46
2022-07-28T00:31:12.527Z,68.82
2022-07-28T00:36:18.033Z,68.60
2022-07-28T00:41:22.750Z,68.23
2022-07-28T00:46:26.446Z,67.88
2022-07-28T00:51:31.823Z,68.13
2022-07-28T00:56:35.700Z,68.21
2022-07-28T01:01:41.078Z,67.94
2022-07-28T01:06:55.112Z,68.73
2022-07-28T01:12:09.018Z,68.52
2022-07-28T01:17:26.916Z,68.60
2022-07-28T01:22:35.100Z,68.82
2022-07-28T01:27:54.792Z,69.12
2022-07-28T01:33:01.591Z,68.68
2022-07-28T01:38:08.111Z,68.78
2022-07-28T01:43:13.481Z,68.57
2022-07-28T01:48:20.069Z,69.65
2022-07-28T01:53:25.693Z,70.11
2022-07-28T01:58:30.658Z,70.03
2022-07-28T02:03:35.418Z,70.03
2022-07-28T02:08:41.064Z,69.63
2022-07-28T02:13:47.011Z,68.72
2022-07-28T02:18:52.371Z,68.63
2022-07-28T02:23:58.393Z,68.50
2022-07-28T02:29:05.451Z,68.89
2022-07-28T02:34:11.230Z,68.76
2022-07-28T02:39:17.985Z,69.33
2022-07-28T02:44:28.274Z,69.77
2022-07-28T02:49:33.624Z,69.62
2022-07-28T02:54:39.846Z,69.72
2022-07-28T02:59:44.232Z,69.46
2022-07-28T03:04:58.141Z,69.53
2022-07-28T03:10:02.941Z,69.30
2022-07-28T03:15:09.706Z,69.22
2022-07-28T03:20:14.902Z,69.07
2022-07-28T03:25:23.553Z,69.18
2022-07-28T03:30:32.174Z,69.45
2022-07-28T03:35:39.734Z,69.15
2022-07-28T03:40:46.451Z,69.31
2022-07-28T03:45:51.554Z,69.00
2022-07-28T03:50:55.714Z,69.14
2022-07-28T03:55:59.330Z,68.84
2022-07-28T04:01:02.988Z,68.87
2022-07-28T04:06:06.710Z,69.25
2022-07-28T04:11:11.153Z,69.47
2022-07-28T04:16:14.829Z,69.58
2022-07-28T04:21:19.152Z,69.72
2022-07-28T04:26:22.880Z,69.68
2022-07-28T04:31:26.672Z,69.66
2022-07-28T04:36:30.555Z,69.60
2022-07-28T04:41:35.057Z,69.48
2022-07-28T04:46:39.135Z,69.37
2022-07-28T04:51:48.057Z,69.56
2022-07-28T04:56:52.521Z,70.13
2022-07-28T05:01:56.947Z,69.87
2022-07-28T05:07:00.863Z,69.75
2022-07-28T05:12:12.039Z,69.30
2022-07-28T05:17:16.135Z,69.54
2022-07-28T05:22:22.006Z,69.51
2022-07-28T05:27:26.073Z,70.05
2022-07-28T05:32:30.055Z,70.20
2022-07-28T05:37:34.822Z,70.27
2022-07-28T05:42:39.748Z,71.02
2022-07-28T05:47:45.848Z,70.99
2022-07-28T05:52:50.742Z,71.13
2022-07-28T05:57:54.514Z,71.36
2022-07-28T06:03:01.497Z,71.30
2022-07-28T06:08:05.602Z,70.82
2022-07-28T06:13:14.354Z,70.54
2022-07-28T06:18:18.312Z,70.40
2022-07-28T06:23:23.352Z,70.11
2022-07-28T06:28:27.075Z,70.20
2022-07-28T06:33:30.634Z,70.45
2022-07-28T06:38:34.488Z,70.15
2022-07-28T06:43:39.258Z,69.71
2022-07-28T06:48:46.085Z,69.61
2022-07-28T06:53:49.875Z,69.34
2022-07-28T06:58:53.663Z,69.22
2022-07-28T07:03:57.203Z,69.08
2022-07-28T07:09:01.456Z,68.85
2022-07-28T07:14:05.114Z,68.47
2022-07-28T07:19:15.462Z,67.89
2022-07-28T07:24:20.032Z,66.72
2022-07-28T07:29:26.356Z,65.23
2022-07-28T07:34:34.222Z,64.57
2022-07-28T07:39:38.214Z,63.74
2022-07-28T07:44:42.073Z,63.09
2022-07-28T07:49:54.360Z,64.00
2022-07-28T07:54:57.756Z,63.81
2022-07-28T08:00:01.630Z,63.88
2022-07-28T08:05:06.747Z,64.02
2022-07-28T08:10:12.583Z,63.19
2022-07-28T08:15:25.204Z,62.21
2022-07-28T08:20:29.135Z,62.10
2022-07-28T08:25:35.892Z,60.48
2022-07-28T08:30:40.564Z,58.39
2022-07-28T08:35:44.328Z,57.93
2022-07-28T08:40:51.870Z,58.20
2022-07-28T08:45:58.705Z,58.27
2022-07-28T08:51:05.094Z,57.96
2022-07-28T08:56:12.356Z,57.98
2022-07-28T09:01:16.549Z,57.58
2022-07-28T09:06:22.671Z,57.13
2022-07-28T09:11:29.055Z,57.19
2022-07-28T09:16:32.948Z,55.73
2022-07-28T09:21:37.176Z,55.59
2022-07-28T09:27:01.026Z,55.32
2022-07-28T09:32:06.529Z,53.98
2022-07-28T09:37:23.311Z,53.94
2022-07-28T09:42:47.037Z,54.39
2022-07-28T09:48:08.043Z,54.10
2022-07-28T09:53:32.376Z,53.66
2022-07-28T09:58:36.909Z,53.64
2022-07-28T10:03:48.624Z,52.06
2022-07-28T10:08:53.292Z,51.41
2022-07-28T10:14:00.292Z,51.60
2022-07-28T10:19:05.631Z,52.13
2022-07-28T10:24:14.285Z,53.16
2022-07-28T10:29:20.839Z,53.71
2022-07-28T10:34:30.986Z,53.67
2022-07-28T10:39:41.568Z,53.51
2022-07-28T10:44:46.503Z,53.56
2022-07-28T10:49:50.371Z,53.77
2022-07-28T10:55:00.384Z,54.50
2022-07-28T11:00:24.507Z,54.07
2022-07-28T11:05:35.920Z,55.33
2022-07-28T11:10:51.610Z,54.86
2022-07-28T11:15:56.319Z,54.56
2022-07-28T11:21:09.870Z,54.45
2022-07-28T11:26:38.096Z,54.72
2022-07-28T11:32:13.248Z,54.85
2022-07-28T11:37:17.065Z,54.24
2022-07-28T11:42:28.905Z,54.58
2022-07-28T11:47:32.483Z,53.39
2022-07-28T11:52:37.301Z,53.63
2022-07-28T11:57:43.820Z,53.72
2022-07-28T12:02:47.611Z,53.65
2022-07-28T12:07:52.423Z,53.33
2022-07-28T12:12:57.686Z,52.09
2022-07-28T12:18:01.882Z,52.15
2022-07-28T12:23:09.847Z,52.80
2022-07-28T12:28:19.128Z,51.99
2022-07-28T12:33:29.349Z,52.48
2022-07-28T12:38:34.232Z,51.70
2022-07-28T12:43:37.795Z,51.50
2022-07-28T12:48:41.846Z,51.55
2022-07-28T12:53:52.332Z,52.25
2022-07-28T12:59:07.708Z,50.62
2022-07-28T13:04:12.105Z,50.86
2022-07-28T13:09:23.522Z,51.35
2022-07-28T13:14:44.305Z,51.18
2022-07-28T13:19:48.483Z,50.88
2022-07-28T13:24:52.417Z,51.31
2022-07-28T13:29:55.497Z,51.39
2022-07-28T13:34:59.112Z,50.58
2022-07-28T13:40:02.742Z,50.93
2022-07-28T13:45:08.200Z,50.92
2022-07-28T13:50:14.106Z,50.61
2022-07-28T13:55:22.652Z,50.22
2022-07-28T14:00:27.114Z,50.75
2022-07-28T14:05:31.948Z,50.87
2022-07-28T14:10:36.240Z,51.01
2022-07-28T14:15:40.770Z,51.76
2022-07-28T14:20:44.458Z,51.65
2022-07-28T14:25:49.556Z,51.25
2022-07-28T14:30:54.130Z,50.90
2022-07-28T14:35:58.297Z,50.81
2022-07-28T14:41:02.104Z,50.61
2022-07-28T14:46:15.105Z,50.17
2022-07-28T14:51:20.678Z,50.61
2022-07-28T14:56:24.942Z,50.22
2022-07-28T15:01:28.765Z,50.61
2022-07-28T15:06:41.103Z,50.62
2022-07-28T15:11:46.789Z,50.63
2022-07-28T15:16:51.209Z,50.38
2022-07-28T15:21:54.908Z,50.51
2022-07-28T15:26:59.635Z,50.69
2022-07-28T15:32:04.303Z,50.49
2022-07-28T15:37:08.283Z,50.60
2022-07-28T15:42:13.478Z,50.63
2022-07-28T15:47:17.564Z,49.39
2022-07-28T15:52:21.275Z,48.45
2022-07-28T15:57:25.334Z,48.78
2022-07-28T16:02:41.548Z,50.21
2022-07-28T16:07:45.464Z,49.87
2022-07-28T16:12:49.594Z,49.80
2022-07-28T16:17:53.578Z,50.86
2022-07-28T16:24:02.741Z,50.94
2022-07-28T16:29:06.452Z,51.22
2022-07-28T16:34:10.990Z,51.52
2022-07-28T16:39:14.811Z,51.11
2022-07-28T16:44:19.096Z,51.35
2022-07-28T16:49:23.572Z,51.66
2022-07-28T16:54:27.215Z,51.71
2022-07-28T16:59:36.995Z,51.69
2022-07-28T17:04:49.408Z,51.73
2022-07-28T17:09:53.103Z,51.88
2022-07-28T17:14:56.494Z,51.92
2022-07-28T17:20:00.758Z,51.83
2022-07-28T17:25:17.207Z,51.76
2022-07-28T17:30:32.348Z,51.86
2022-07-28T17:35:36.475Z,52.02
2022-07-28T17:40:42.444Z,52.07
2022-07-28T17:45:46.371Z,52.46
2022-07-28T17:50:51.114Z,52.71
2022-07-28T17:56:01.044Z,52.74
2022-07-28T18:01:12.048Z,52.90
2022-07-28T18:06:19.139Z,53.04
2022-07-28T18:11:24.225Z,53.44
2022-07-28T18:16:27.841Z,53.72
2022-07-28T18:21:31.754Z,54.09
2022-07-28T18:26:41.922Z,54.52
2022-07-28T18:31:46.958Z,54.86
2022-07-28T18:36:50.827Z,55.07
2022-07-28T18:41:56.472Z,55.33
2022-07-28T18:47:02.551Z,55.57
2022-07-28T18:52:07.382Z,55.85
2022-07-28T18:57:11.372Z,56.42
2022-07-28T19:02:15.848Z,56.33
2022-07-28T19:07:24.481Z,57.28
2022-07-28T19:12:30.756Z,57.24
2022-07-28T19:17:34.606Z,58.35
2022-07-28T19:22:38.706Z,59.11
2022-07-28T19:27:44.585Z,59.35
2022-07-28T19:32:47.516Z,59.68
2022-07-28T19:37:51.351Z,60.20
2022-07-28T19:42:56.370Z,60.46
2022-07-28T19:48:03.237Z,60.47
2022-07-28T19:53:06.839Z,60.89
2022-07-28T19:58:18.470Z,61.61
2022-07-28T20:04:02.430Z,61.98
2022-07-28T20:08:45.671Z,62.44
2022-07-28T20:13:49.619Z,63.38
2022-07-28T20:18:53.879Z,63.52
2022-07-28T20:23:58.095Z,63.25
2022-07-28T20:29:01.715Z,63.76
2022-07-28T20:34:06.380Z,64.68
2022-07-28T20:39:34.484Z,64.78
2022-07-28T20:44:34.824Z,64.03
2022-07-28T20:49:39.146Z,63.94
2022-07-28T20:54:42.780Z,63.72
2022-07-28T20:59:48.312Z,63.26
2022-07-28T21:04:52.513Z,63.78
2022-07-28T21:09:56.308Z,64.76
2022-07-28T21:15:00.386Z,65.60
2022-07-28T21:20:05.206Z,66.65
2022-07-28T21:25:09.952Z,67.24
2022-07-28T21:30:14.792Z,67.05
2022-07-28T21:35:18.662Z,68.20
2022-07-28T21:40:22.914Z,68.97
2022-07-28T21:45:26.821Z,69.74
2022-07-28T21:50:30.547Z,70.00
2022-07-28T21:55:34.721Z,68.92
2022-07-28T22:00:38.608Z,68.05
2022-07-28T22:05:43.044Z,67.76
2022-07-28T22:10:46.736Z,67.26
2022-07-28T22:15:50.382Z,66.95
2022-07-28T22:20:54.037Z,66.54
2022-07-28T22:25:57.699Z,66.56
2022-07-28T22:31:09.284Z,65.99
2022-07-28T22:36:13.851Z,65.63
2022-07-28T22:41:17.722Z,65.66
2022-07-28T22:46:21.429Z,66.07
2022-07-28T22:51:25.104Z,65.57
2022-07-28T22:56:37.182Z,65.77
2022-07-28T23:01:41.469Z,65.77
2022-07-28T23:06:45.664Z,65.88
2022-07-28T23:11:55.492Z,65.89
2022-07-28T23:17:00.147Z,65.87
2022-07-28T23:22:04.665Z,65.57
2022-07-28T23:27:08.246Z,65.28
2022-07-28T23:32:16.877Z,65.02
2022-07-28T23:37:20.862Z,65.03
2022-07-28T23:42:24.525Z,64.69
2022-07-28T23:47:28.076Z,64.80
2022-07-28T23:52:32.089Z,64.47
2022-07-28T23:57:35.905Z,65.20
